Maple Hill, North Carolina
Current Conditions -  °F | °C
As of 1:15 PM on Wednesday 28 Jan 2015 (Local Time) from KOAJ Reporting Station
Clear Clear  
Wind Chill: 37°   Ceiling: Unl
Heat Index: 43°   Visibility: 10mi
Dew Point: 18°   Wind: 12mph
Humidity: 36%   Direction: 340°NNW
Pressure: 30.21"   Gusts: 17mph
Location:  34.67°N, 77.71°W
Report Text: KOAJ 281815Z AUTO 34010G15KT 10SM CLR 06/M08 A3021 RMK AO1
Loading
Personal Weather Stations






























Interactive Weather Map New forecast layout! Learn more

10-Day Weather Forecast

Advertisements
Track Severe Weather on mobile